EDT,Max TemperatureF,Mean TemperatureF,Min TemperatureF,Max Dew PointF,MeanDew PointF,Min DewpointF,Max Humidity, Mean Humidity, Min Humidity, Max Sea Level PressureIn, Mean Sea Level PressureIn, Min Sea Level PressureIn, Max VisibilityMiles, Mean VisibilityMiles, Min VisibilityMiles, Max Wind SpeedMPH, Mean Wind SpeedMPH, Max Gust SpeedMPH,PrecipitationIn, CloudCover, Events, WindDirDegrees
2013-5-1,80,65,50,58,53,48,93,65,40,30.24,30.18,30.11,10,10,7,13,4,20,0.01,0,,116
2013-5-2,73,64,55,54,51,46,87,62,49,30.27,30.21,30.14,10,10,10,14,7,20,0.00,1,,150
2013-5-3,75,65,55,53,44,33,87,50,21,30.16,30.10,30.04,10,10,10,20,8,25,0.00,0,,153
2013-5-4,70,61,53,47,43,38,66,50,40,30.09,30.05,29.99,10,10,10,21,11,26,0.00,0,,130
2013-5-5,72,60,50,41,39,34,71,46,28,30.05,29.99,29.92,10,10,10,15,7,20,0.00,1,,116
2013-5-6,66,60,55,57,49,41,90,70,55,30.00,29.98,29.95,10,9,4,8,4,,0.28,7,Rain,98
2013-5-7,70,61,53,59,55,51,93,81,61,29.98,29.96,29.94,10,8,1,12,5,22,0.31,6,Rain-Thunderstorm,66
2013-5-8,73,62,52,55,53,50,93,72,49,29.99,29.96,29.91,10,10,6,10,4,,0.00,3,Thunderstorm,23
2013-5-9,78,62,48,58,52,46,96,76,41,30.02,29.98,29.96,10,8,2,10,1,16,0.00,1,,228
2013-5-10,73,65,57,61,59,54,94,84,61,29.99,29.88,29.82,10,8,2,15,7,26,0.50,7,Rain-Thunderstorm,218
2013-5-11,62,54,46,59,49,38,94,83,69,29.97,29.87,29.82,10,7,2,24,8,32,0.03,8,Rain,304
2013-5-12,55,46,37,38,32,28,86,60,40,30.13,30.04,29.98,10,10,10,17,7,29,0.00,4,,299
2013-5-13,57,46,37,37,32,27,93,63,33,30.21,30.16,30.12,10,10,9,12,2,20,0.00,4,,353
2013-5-14,79,56,36,54,41,33,89,60,33,30.17,30.02,29.84,10,10,10,17,5,24,0.00,2,,192
2013-5-15,86,77,68,58,56,51,65,51,37,29.84,29.82,29.78,10,10,10,24,12,41,0.00,0,,250
2013-5-16,75,66,60,64,59,52,94,76,48,29.99,29.91,29.82,10,7,1,13,8,21,0.16,4,Rain-Thunderstorm,253
2013-5-17,80,68,59,63,60,57,100,84,52,30.11,30.06,30.00,10,4,0,8,3,,0.01,5,Fog,169
2013-5-18,80,69,59,64,60,56,93,76,56,30.10,30.04,29.99,10,8,5,12,4,,0.00,4,Rain-Thunderstorm,117
2013-5-19,79,70,62,68,64,59,90,79,62,30.03,29.98,29.93,10,8,1,10,6,16,0.18,5,Rain-Thunderstorm,133
2013-5-20,84,74,64,71,66,61,94,82,54,30.04,29.99,29.90,10,6,1,13,6,16,0.00,5,Thunderstorm,170
2013-5-21,84,78,73,64,62,59,66,55,47,29.89,29.84,29.82,10,10,10,13,9,24,0.00,1,Thunderstorm,225
2013-5-22,80,72,64,64,60,58,90,69,54,29.87,29.82,29.76,10,10,6,17,8,23,0.05,2,Rain,203
2013-5-23,73,61,50,63,58,43,94,83,53,30.04,29.87,29.80,10,7,2,18,8,32,0.16,7,Rain,261
2013-5-24,60,51,41,43,37,33,86,64,39,30.34,30.23,30.07,10,10,10,17,12,25,0.00,4,,356
2013-5-25,66,50,35,41,37,32,93,63,36,30.40,30.33,30.26,10,9,4,12,3,16,0.00,0,,354
2013-5-26,71,53,37,41,35,28,93,53,23,30.34,30.29,30.23,10,10,8,9,2,,0.00,0,,25
2013-5-27,69,56,43,51,46,40,89,68,45,30.26,30.17,30.03,10,10,8,16,6,22,0.05,3,Rain,144
2013-5-28,82,72,63,62,58,53,80,61,44,30.05,30.00,29.96,10,10,10,17,9,30,0.02,3,,211
2013-5-29,86,77,64,61,59,56,84,55,38,30.09,30.06,30.02,10,10,10,17,8,26,0.00,1,,222
2013-5-30,88,75,63,64,61,56,90,62,37,30.18,30.11,30.04,10,10,7,13,4,21,0.00,0,,196
2013-5-31,88,74,62,65,63,58,96,76,44,30.09,30.04,29.97,10,7,0,28,7,39,0.64,4,Fog-Rain-Thunderstorm,210